sensor_id;sensor_type;location;lat;lon;timestamp;P1;durP1;ratioP1;P2;durP2;ratioP2
75864;SDS011;64510;46.704;38.274;2023-04-16T00:02:18;7.03;;;6.13;;
75864;SDS011;64510;46.704;38.274;2023-04-16T00:04:45;5.05;;;4.10;;
75864;SDS011;64510;46.704;38.274;2023-04-16T00:07:11;6.95;;;5.35;;
75864;SDS011;64510;46.704;38.274;2023-04-16T00:09:37;7.85;;;3.45;;
75864;SDS011;64510;46.704;38.274;2023-04-16T00:12:03;5.85;;;4.60;;
75864;SDS011;64510;46.704;38.274;2023-04-16T00:14:30;4.82;;;4.28;;
75864;SDS011;64510;46.704;38.274;2023-04-16T00:16:56;5.05;;;4.30;;
75864;SDS011;64510;46.704;38.274;2023-04-16T00:19:22;4.43;;;3.95;;
75864;SDS011;64510;46.704;38.274;2023-04-16T00:21:48;5.18;;;4.05;;
75864;SDS011;64510;46.704;38.274;2023-04-16T00:24:13;5.85;;;5.05;;
75864;SDS011;64510;46.704;38.274;2023-04-16T00:26:40;4.43;;;4.03;;
75864;SDS011;64510;46.704;38.274;2023-04-16T00:29:08;5.72;;;4.50;;
75864;SDS011;64510;46.704;38.274;2023-04-16T00:31:35;6.18;;;5.13;;
75864;SDS011;64510;46.704;38.274;2023-04-16T00:34:02;6.57;;;5.43;;
75864;SDS011;64510;46.704;38.274;2023-04-16T00:36:28;5.57;;;5.07;;
75864;SDS011;64510;46.704;38.274;2023-04-16T00:38:54;5.63;;;4.80;;
75864;SDS011;64510;46.704;38.274;2023-04-16T00:41:21;7.35;;;6.15;;
75864;SDS011;64510;46.704;38.274;2023-04-16T00:43:48;6.60;;;5.15;;
75864;SDS011;64510;46.704;38.274;2023-04-16T00:46:14;9.00;;;4.18;;
75864;SDS011;64510;46.704;38.274;2023-04-16T00:48:41;7.07;;;6.35;;
75864;SDS011;64510;46.704;38.274;2023-04-16T00:51:09;7.43;;;5.75;;
75864;SDS011;64510;46.704;38.274;2023-04-16T00:53:36;5.40;;;4.45;;
75864;SDS011;64510;46.704;38.274;2023-04-16T00:56:03;8.48;;;5.68;;
75864;SDS011;64510;46.704;38.274;2023-04-16T00:58:30;7.88;;;5.68;;
75864;SDS011;64510;46.704;38.274;2023-04-16T01:00:58;6.63;;;4.47;;
75864;SDS011;64510;46.704;38.274;2023-04-16T01:03:24;7.63;;;5.40;;
75864;SDS011;64510;46.704;38.274;2023-04-16T01:06:01;5.82;;;4.30;;
75864;SDS011;64510;46.704;38.274;2023-04-16T01:08:27;7.80;;;5.20;;
75864;SDS011;64510;46.704;38.274;2023-04-16T01:10:53;8.73;;;5.32;;
75864;SDS011;64510;46.704;38.274;2023-04-16T01:13:19;6.75;;;4.85;;
75864;SDS011;64510;46.704;38.274;2023-04-16T01:15:45;9.05;;;5.78;;
75864;SDS011;64510;46.704;38.274;2023-04-16T01:18:17;7.20;;;5.40;;
75864;SDS011;64510;46.704;38.274;2023-04-16T01:20:45;5.28;;;4.63;;
75864;SDS011;64510;46.704;38.274;2023-04-16T01:23:12;5.18;;;4.15;;
75864;SDS011;64510;46.704;38.274;2023-04-16T01:25:39;3.38;;;3.05;;
75864;SDS011;64510;46.704;38.274;2023-04-16T01:28:05;5.68;;;4.22;;
75864;SDS011;64510;46.704;38.274;2023-04-16T01:30:32;6.15;;;3.58;;
75864;SDS011;64510;46.704;38.274;2023-04-16T01:33:09;4.95;;;3.75;;
75864;SDS011;64510;46.704;38.274;2023-04-16T01:35:36;11.02;;;5.28;;
75864;SDS011;64510;46.704;38.274;2023-04-16T01:38:02;5.63;;;4.82;;
75864;SDS011;64510;46.704;38.274;2023-04-16T01:40:29;6.80;;;5.28;;
75864;SDS011;64510;46.704;38.274;2023-04-16T01:42:55;5.65;;;4.88;;
75864;SDS011;64510;46.704;38.274;2023-04-16T01:45:21;4.50;;;3.88;;
75864;SDS011;64510;46.704;38.274;2023-04-16T01:47:50;7.95;;;5.13;;
75864;SDS011;64510;46.704;38.274;2023-04-16T01:50:20;6.13;;;5.00;;
75864;SDS011;64510;46.704;38.274;2023-04-16T01:52:46;5.77;;;3.83;;
75864;SDS011;64510;46.704;38.274;2023-04-16T01:55:12;6.00;;;5.20;;
75864;SDS011;64510;46.704;38.274;2023-04-16T01:57:39;8.35;;;5.30;;
75864;SDS011;64510;46.704;38.274;2023-04-16T02:00:05;4.97;;;4.47;;
75864;SDS011;64510;46.704;38.274;2023-04-16T02:02:43;7.78;;;4.72;;
75864;SDS011;64510;46.704;38.274;2023-04-16T02:05:13;4.47;;;4.03;;
75864;SDS011;64510;46.704;38.274;2023-04-16T02:07:39;7.88;;;5.70;;
75864;SDS011;64510;46.704;38.274;2023-04-16T02:10:05;4.15;;;3.42;;
75864;SDS011;64510;46.704;38.274;2023-04-16T02:12:33;6.03;;;3.55;;
75864;SDS011;64510;46.704;38.274;2023-04-16T02:14:59;5.68;;;4.40;;
75864;SDS011;64510;46.704;38.274;2023-04-16T02:17:27;4.55;;;3.33;;
75864;SDS011;64510;46.704;38.274;2023-04-16T02:20:05;4.03;;;3.63;;
75864;SDS011;64510;46.704;38.274;2023-04-16T02:22:36;4.55;;;3.90;;
75864;SDS011;64510;46.704;38.274;2023-04-16T02:25:03;6.53;;;3.92;;
75864;SDS011;64510;46.704;38.274;2023-04-16T02:27:30;5.15;;;4.65;;
75864;SDS011;64510;46.704;38.274;2023-04-16T02:30:04;5.55;;;3.65;;
75864;SDS011;64510;46.704;38.274;2023-04-16T02:32:33;6.50;;;3.83;;
75864;SDS011;64510;46.704;38.274;2023-04-16T02:34:59;10.00;;;3.95;;
75864;SDS011;64510;46.704;38.274;2023-04-16T02:37:28;4.07;;;3.45;;
75864;SDS011;64510;46.704;38.274;2023-04-16T02:39:54;5.18;;;3.90;;
75864;SDS011;64510;46.704;38.274;2023-04-16T02:42:20;6.57;;;4.78;;
75864;SDS011;64510;46.704;38.274;2023-04-16T02:44:46;4.40;;;3.90;;
75864;SDS011;64510;46.704;38.274;2023-04-16T02:47:12;3.92;;;3.55;;
75864;SDS011;64510;46.704;38.274;2023-04-16T02:49:38;4.90;;;3.60;;
75864;SDS011;64510;46.704;38.274;2023-04-16T02:52:04;5.75;;;3.60;;
75864;SDS011;64510;46.704;38.274;2023-04-16T02:54:29;4.68;;;3.88;;
75864;SDS011;64510;46.704;38.274;2023-04-16T02:56:55;4.07;;;3.30;;
75864;SDS011;64510;46.704;38.274;2023-04-16T02:59:21;4.05;;;3.65;;
75864;SDS011;64510;46.704;38.274;2023-04-16T03:01:47;5.22;;;3.92;;
75864;SDS011;64510;46.704;38.274;2023-04-16T03:04:13;4.15;;;3.20;;
75864;SDS011;64510;46.704;38.274;2023-04-16T03:06:40;6.80;;;3.42;;
75864;SDS011;64510;46.704;38.274;2023-04-16T03:09:06;4.75;;;3.55;;
75864;SDS011;64510;46.704;38.274;2023-04-16T03:11:32;5.32;;;3.47;;
75864;SDS011;64510;46.704;38.274;2023-04-16T03:13:58;4.35;;;3.20;;
75864;SDS011;64510;46.704;38.274;2023-04-16T03:16:23;8.45;;;3.78;;
75864;SDS011;64510;46.704;38.274;2023-04-16T03:18:49;4.78;;;3.13;;
75864;SDS011;64510;46.704;38.274;2023-04-16T03:21:16;4.75;;;4.13;;
75864;SDS011;64510;46.704;38.274;2023-04-16T03:23:42;3.30;;;3.00;;
75864;SDS011;64510;46.704;38.274;2023-04-16T03:26:08;5.90;;;3.60;;
75864;SDS011;64510;46.704;38.274;2023-04-16T03:28:33;3.67;;;3.33;;
75864;SDS011;64510;46.704;38.274;2023-04-16T03:31:00;4.07;;;3.45;;
75864;SDS011;64510;46.704;38.274;2023-04-16T03:33:26;5.25;;;3.15;;
75864;SDS011;64510;46.704;38.274;2023-04-16T03:35:58;3.72;;;2.95;;
75864;SDS011;64510;46.704;38.274;2023-04-16T03:38:27;9.23;;;3.17;;
75864;SDS011;64510;46.704;38.274;2023-04-16T03:40:55;5.78;;;3.03;;
75864;SDS011;64510;46.704;38.274;2023-04-16T03:43:21;6.28;;;3.38;;
75864;SDS011;64510;46.704;38.274;2023-04-16T03:45:47;4.20;;;2.92;;
75864;SDS011;64510;46.704;38.274;2023-04-16T03:48:12;3.00;;;2.47;;
75864;SDS011;64510;46.704;38.274;2023-04-16T03:50:38;4.55;;;3.42;;
75864;SDS011;64510;46.704;38.274;2023-04-16T03:53:07;4.53;;;3.63;;
75864;SDS011;64510;46.704;38.274;2023-04-16T03:55:34;4.18;;;3.42;;
75864;SDS011;64510;46.704;38.274;2023-04-16T03:58:00;8.57;;;3.38;;
75864;SDS011;64510;46.704;38.274;2023-04-16T04:00:29;3.80;;;3.38;;
75864;SDS011;64510;46.704;38.274;2023-04-16T04:03:03;8.93;;;3.72;;
75864;SDS011;64510;46.704;38.274;2023-04-16T04:05:30;4.57;;;2.75;;
75864;SDS011;64510;46.704;38.274;2023-04-16T04:08:01;3.28;;;2.95;;
75864;SDS011;64510;46.704;38.274;2023-04-16T04:10:30;3.88;;;2.38;;
75864;SDS011;64510;46.704;38.274;2023-04-16T04:12:57;3.42;;;2.72;;
75864;SDS011;64510;46.704;38.274;2023-04-16T04:15:24;3.22;;;2.75;;
75864;SDS011;64510;46.704;38.274;2023-04-16T04:17:51;3.97;;;3.53;;
75864;SDS011;64510;46.704;38.274;2023-04-16T04:20:17;5.43;;;3.50;;
75864;SDS011;64510;46.704;38.274;2023-04-16T04:22:45;4.65;;;2.50;;
75864;SDS011;64510;46.704;38.274;2023-04-16T04:25:11;6.10;;;3.80;;
75864;SDS011;64510;46.704;38.274;2023-04-16T04:27:37;3.13;;;2.33;;
75864;SDS011;64510;46.704;38.274;2023-04-16T04:30:03;3.38;;;2.53;;
75864;SDS011;64510;46.704;38.274;2023-04-16T04:32:31;4.25;;;2.75;;
75864;SDS011;64510;46.704;38.274;2023-04-16T04:34:59;5.22;;;3.30;;
75864;SDS011;64510;46.704;38.274;2023-04-16T04:37:26;4.97;;;3.42;;
75864;SDS011;64510;46.704;38.274;2023-04-16T04:39:52;6.75;;;2.60;;
75864;SDS011;64510;46.704;38.274;2023-04-16T04:42:18;4.72;;;2.97;;
75864;SDS011;64510;46.704;38.274;2023-04-16T04:44:45;5.80;;;2.95;;
75864;SDS011;64510;46.704;38.274;2023-04-16T04:47:12;2.85;;;2.42;;
75864;SDS011;64510;46.704;38.274;2023-04-16T04:49:38;2.78;;;2.47;;
75864;SDS011;64510;46.704;38.274;2023-04-16T04:52:06;3.10;;;2.80;;
75864;SDS011;64510;46.704;38.274;2023-04-16T04:54:32;3.38;;;2.20;;
75864;SDS011;64510;46.704;38.274;2023-04-16T04:56:59;3.70;;;3.10;;
75864;SDS011;64510;46.704;38.274;2023-04-16T04:59:27;5.45;;;3.17;;
75864;SDS011;64510;46.704;38.274;2023-04-16T05:01:53;3.33;;;2.97;;
75864;SDS011;64510;46.704;38.274;2023-04-16T05:04:19;2.85;;;2.65;;
75864;SDS011;64510;46.704;38.274;2023-04-16T05:06:45;2.97;;;2.67;;
75864;SDS011;64510;46.704;38.274;2023-04-16T05:09:11;3.45;;;2.58;;
75864;SDS011;64510;46.704;38.274;2023-04-16T05:11:37;2.58;;;2.38;;
75864;SDS011;64510;46.704;38.274;2023-04-16T05:14:03;5.18;;;2.78;;
75864;SDS011;64510;46.704;38.274;2023-04-16T05:16:29;3.03;;;2.67;;
75864;SDS011;64510;46.704;38.274;2023-04-16T05:18:55;4.68;;;2.58;;
75864;SDS011;64510;46.704;38.274;2023-04-16T05:21:22;4.03;;;2.83;;
75864;SDS011;64510;46.704;38.274;2023-04-16T05:23:48;2.65;;;2.30;;
75864;SDS011;64510;46.704;38.274;2023-04-16T05:26:14;2.63;;;2.42;;
75864;SDS011;64510;46.704;38.274;2023-04-16T05:28:40;3.13;;;2.58;;
75864;SDS011;64510;46.704;38.274;2023-04-16T05:31:06;2.95;;;2.72;;
75864;SDS011;64510;46.704;38.274;2023-04-16T05:33:32;3.83;;;2.53;;
75864;SDS011;64510;46.704;38.274;2023-04-16T05:35:58;3.80;;;2.17;;
75864;SDS011;64510;46.704;38.274;2023-04-16T05:38:24;2.38;;;1.98;;
75864;SDS011;64510;46.704;38.274;2023-04-16T05:40:50;4.25;;;2.53;;
75864;SDS011;64510;46.704;38.274;2023-04-16T05:43:16;3.58;;;2.50;;
75864;SDS011;64510;46.704;38.274;2023-04-16T05:45:42;3.03;;;2.83;;
75864;SDS011;64510;46.704;38.274;2023-04-16T05:48:08;2.85;;;2.60;;
75864;SDS011;64510;46.704;38.274;2023-04-16T05:50:35;5.40;;;2.15;;
75864;SDS011;64510;46.704;38.274;2023-04-16T05:53:01;5.13;;;2.75;;
75864;SDS011;64510;46.704;38.274;2023-04-16T05:55:30;3.95;;;2.55;;
75864;SDS011;64510;46.704;38.274;2023-04-16T05:57:56;5.38;;;2.65;;
75864;SDS011;64510;46.704;38.274;2023-04-16T06:00:22;4.03;;;2.25;;
75864;SDS011;64510;46.704;38.274;2023-04-16T06:02:48;2.65;;;2.13;;
75864;SDS011;64510;46.704;38.274;2023-04-16T06:05:14;2.90;;;2.13;;
75864;SDS011;64510;46.704;38.274;2023-04-16T06:07:41;3.08;;;2.42;;
75864;SDS011;64510;46.704;38.274;2023-04-16T06:10:06;2.35;;;1.85;;
75864;SDS011;64510;46.704;38.274;2023-04-16T06:12:33;3.20;;;2.13;;
75864;SDS011;64510;46.704;38.274;2023-04-16T06:14:59;4.30;;;2.47;;
75864;SDS011;64510;46.704;38.274;2023-04-16T06:17:25;4.03;;;2.00;;
75864;SDS011;64510;46.704;38.274;2023-04-16T06:19:51;2.90;;;2.63;;
75864;SDS011;64510;46.704;38.274;2023-04-16T06:22:17;7.50;;;2.55;;
75864;SDS011;64510;46.704;38.274;2023-04-16T06:24:43;3.50;;;2.45;;
75864;SDS011;64510;46.704;38.274;2023-04-16T06:27:09;3.75;;;2.35;;
75864;SDS011;64510;46.704;38.274;2023-04-16T06:29:35;2.70;;;2.42;;
75864;SDS011;64510;46.704;38.274;2023-04-16T06:32:01;3.85;;;2.40;;
75864;SDS011;64510;46.704;38.274;2023-04-16T06:34:28;2.50;;;1.58;;
75864;SDS011;64510;46.704;38.274;2023-04-16T06:36:54;7.57;;;2.22;;
75864;SDS011;64510;46.704;38.274;2023-04-16T06:39:20;3.10;;;2.20;;
75864;SDS011;64510;46.704;38.274;2023-04-16T06:41:49;3.55;;;1.77;;
75864;SDS011;64510;46.704;38.274;2023-04-16T06:44:16;3.28;;;1.92;;
75864;SDS011;64510;46.704;38.274;2023-04-16T06:46:42;4.15;;;2.33;;
75864;SDS011;64510;46.704;38.274;2023-04-16T06:49:08;2.65;;;2.45;;
75864;SDS011;64510;46.704;38.274;2023-04-16T06:51:34;3.25;;;2.53;;
75864;SDS011;64510;46.704;38.274;2023-04-16T06:54:00;2.70;;;2.50;;
75864;SDS011;64510;46.704;38.274;2023-04-16T06:56:26;3.30;;;2.20;;
75864;SDS011;64510;46.704;38.274;2023-04-16T06:58:52;3.10;;;2.00;;
75864;SDS011;64510;46.704;38.274;2023-04-16T07:01:18;2.33;;;2.00;;
75864;SDS011;64510;46.704;38.274;2023-04-16T07:03:44;2.70;;;2.20;;
75864;SDS011;64510;46.704;38.274;2023-04-16T07:06:09;2.17;;;1.95;;
75864;SDS011;64510;46.704;38.274;2023-04-16T07:08:35;3.03;;;1.80;;
75864;SDS011;64510;46.704;38.274;2023-04-16T07:11:01;2.50;;;2.30;;
75864;SDS011;64510;46.704;38.274;2023-04-16T07:13:27;4.57;;;2.42;;
75864;SDS011;64510;46.704;38.274;2023-04-16T07:15:53;4.82;;;2.25;;
75864;SDS011;64510;46.704;38.274;2023-04-16T07:18:19;2.53;;;2.33;;
75864;SDS011;64510;46.704;38.274;2023-04-16T07:20:45;3.53;;;1.98;;
75864;SDS011;64510;46.704;38.274;2023-04-16T07:23:12;3.28;;;2.13;;
75864;SDS011;64510;46.704;38.274;2023-04-16T07:25:38;4.78;;;2.03;;
75864;SDS011;64510;46.704;38.274;2023-04-16T07:28:04;2.88;;;2.33;;
75864;SDS011;64510;46.704;38.274;2023-04-16T07:30:30;3.42;;;2.60;;
75864;SDS011;64510;46.704;38.274;2023-04-16T07:33:02;5.65;;;1.50;;
75864;SDS011;64510;46.704;38.274;2023-04-16T07:35:28;8.10;;;2.05;;
75864;SDS011;64510;46.704;38.274;2023-04-16T07:37:55;4.20;;;2.10;;
75864;SDS011;64510;46.704;38.274;2023-04-16T07:40:21;2.33;;;2.13;;
75864;SDS011;64510;46.704;38.274;2023-04-16T07:42:48;5.15;;;2.65;;
75864;SDS011;64510;46.704;38.274;2023-04-16T07:45:16;2.55;;;2.10;;
75864;SDS011;64510;46.704;38.274;2023-04-16T07:47:42;4.32;;;1.92;;
75864;SDS011;64510;46.704;38.274;2023-04-16T07:50:10;5.60;;;2.92;;
75864;SDS011;64510;46.704;38.274;2023-04-16T07:52:36;3.30;;;2.33;;
75864;SDS011;64510;46.704;38.274;2023-04-16T07:55:06;3.03;;;2.40;;
75864;SDS011;64510;46.704;38.274;2023-04-16T07:57:34;6.30;;;2.72;;
75864;SDS011;64510;46.704;38.274;2023-04-16T08:00:01;2.80;;;2.17;;
75864;SDS011;64510;46.704;38.274;2023-04-16T08:02:38;4.88;;;2.47;;
75864;SDS011;64510;46.704;38.274;2023-04-16T08:05:04;3.15;;;2.28;;
75864;SDS011;64510;46.704;38.274;2023-04-16T08:07:30;2.35;;;2.15;;
75864;SDS011;64510;46.704;38.274;2023-04-16T08:09:56;4.72;;;2.42;;
75864;SDS011;64510;46.704;38.274;2023-04-16T08:12:22;2.50;;;1.73;;
75864;SDS011;64510;46.704;38.274;2023-04-16T08:14:48;3.22;;;2.13;;
75864;SDS011;64510;46.704;38.274;2023-04-16T08:17:14;2.22;;;1.50;;
75864;SDS011;64510;46.704;38.274;2023-04-16T08:19:41;5.72;;;2.47;;
75864;SDS011;64510;46.704;38.274;2023-04-16T08:22:09;3.70;;;2.15;;
75864;SDS011;64510;46.704;38.274;2023-04-16T08:24:38;2.15;;;1.90;;
75864;SDS011;64510;46.704;38.274;2023-04-16T08:27:04;2.53;;;2.15;;
75864;SDS011;64510;46.704;38.274;2023-04-16T08:29:30;3.47;;;1.85;;
75864;SDS011;64510;46.704;38.274;2023-04-16T08:31:57;2.83;;;1.75;;
75864;SDS011;64510;46.704;38.274;2023-04-16T08:34:23;2.03;;;1.38;;
75864;SDS011;64510;46.704;38.274;2023-04-16T08:36:49;2.33;;;2.13;;
75864;SDS011;64510;46.704;38.274;2023-04-16T08:39:15;2.70;;;2.20;;
75864;SDS011;64510;46.704;38.274;2023-04-16T08:41:42;2.10;;;1.73;;
75864;SDS011;64510;46.704;38.274;2023-04-16T08:44:12;2.78;;;1.98;;
75864;SDS011;64510;46.704;38.274;2023-04-16T08:46:42;3.78;;;2.20;;
75864;SDS011;64510;46.704;38.274;2023-04-16T08:49:09;3.17;;;2.03;;
75864;SDS011;64510;46.704;38.274;2023-04-16T08:51:42;1.92;;;1.77;;
75864;SDS011;64510;46.704;38.274;2023-04-16T08:54:14;2.25;;;1.27;;
75864;SDS011;64510;46.704;38.274;2023-04-16T08:57:20;5.60;;;2.30;;
75864;SDS011;64510;46.704;38.274;2023-04-16T08:59:48;2.20;;;2.00;;
75864;SDS011;64510;46.704;38.274;2023-04-16T09:02:16;2.70;;;2.05;;
75864;SDS011;64510;46.704;38.274;2023-04-16T09:04:42;3.47;;;2.50;;
75864;SDS011;64510;46.704;38.274;2023-04-16T09:07:08;3.53;;;2.38;;
75864;SDS011;64510;46.704;38.274;2023-04-16T09:09:35;3.00;;;2.15;;
75864;SDS011;64510;46.704;38.274;2023-04-16T09:12:03;1.92;;;1.50;;
75864;SDS011;64510;46.704;38.274;2023-04-16T09:14:30;4.05;;;2.10;;
75864;SDS011;64510;46.704;38.274;2023-04-16T09:16:56;8.60;;;2.47;;
75864;SDS011;64510;46.704;38.274;2023-04-16T09:19:25;3.08;;;2.08;;
75864;SDS011;64510;46.704;38.274;2023-04-16T09:21:51;6.68;;;2.38;;
75864;SDS011;64510;46.704;38.274;2023-04-16T09:24:17;3.88;;;2.83;;
75864;SDS011;64510;46.704;38.274;2023-04-16T09:26:43;9.32;;;2.17;;
75864;SDS011;64510;46.704;38.274;2023-04-16T09:29:10;3.05;;;2.15;;
75864;SDS011;64510;46.704;38.274;2023-04-16T09:31:36;4.13;;;2.45;;
75864;SDS011;64510;46.704;38.274;2023-04-16T09:34:03;2.58;;;1.92;;
75864;SDS011;64510;46.704;38.274;2023-04-16T09:36:30;2.83;;;2.08;;
75864;SDS011;64510;46.704;38.274;2023-04-16T09:38:57;2.90;;;2.10;;
75864;SDS011;64510;46.704;38.274;2023-04-16T09:41:24;1.98;;;1.77;;
75864;SDS011;64510;46.704;38.274;2023-04-16T09:46:33;4.15;;;2.70;;
75864;SDS011;64510;46.704;38.274;2023-04-16T09:49:04;4.00;;;2.50;;
75864;SDS011;64510;46.704;38.274;2023-04-16T09:51:40;3.00;;;2.78;;
75864;SDS011;64510;46.704;38.274;2023-04-16T09:54:07;3.70;;;2.20;;
75864;SDS011;64510;46.704;38.274;2023-04-16T09:56:38;3.47;;;1.90;;
75864;SDS011;64510;46.704;38.274;2023-04-16T09:59:08;2.95;;;2.70;;
75864;SDS011;64510;46.704;38.274;2023-04-16T10:01:45;3.42;;;2.40;;
75864;SDS011;64510;46.704;38.274;2023-04-16T10:04:11;3.35;;;3.05;;
75864;SDS011;64510;46.704;38.274;2023-04-16T10:06:37;4.75;;;1.90;;
75864;SDS011;64510;46.704;38.274;2023-04-16T10:09:05;5.18;;;3.65;;
75864;SDS011;64510;46.704;38.274;2023-04-16T10:11:35;5.40;;;3.80;;
75864;SDS011;64510;46.704;38.274;2023-04-16T10:14:02;3.28;;;2.72;;
75864;SDS011;64510;46.704;38.274;2023-04-16T10:16:28;2.47;;;2.20;;
75864;SDS011;64510;46.704;38.274;2023-04-16T10:18:54;4.07;;;1.88;;
75864;SDS011;64510;46.704;38.274;2023-04-16T10:21:21;2.63;;;2.03;;
75864;SDS011;64510;46.704;38.274;2023-04-16T10:23:47;2.17;;;1.85;;
75864;SDS011;64510;46.704;38.274;2023-04-16T10:26:14;5.00;;;2.30;;
75864;SDS011;64510;46.704;38.274;2023-04-16T10:28:42;4.10;;;3.58;;
75864;SDS011;64510;46.704;38.274;2023-04-16T10:31:09;2.60;;;2.40;;
75864;SDS011;64510;46.704;38.274;2023-04-16T10:33:39;4.72;;;1.50;;
75864;SDS011;64510;46.704;38.274;2023-04-16T10:36:13;1.92;;;1.83;;
75864;SDS011;64510;46.704;38.274;2023-04-16T10:41:12;1.92;;;1.73;;
75864;SDS011;64510;46.704;38.274;2023-04-16T10:43:39;6.63;;;2.60;;
75864;SDS011;64510;46.704;38.274;2023-04-16T10:48:42;4.57;;;2.50;;
75864;SDS011;64510;46.704;38.274;2023-04-16T10:51:08;3.25;;;2.35;;
75864;SDS011;64510;46.704;38.274;2023-04-16T10:56:34;4.88;;;3.35;;
75864;SDS011;64510;46.704;38.274;2023-04-16T10:59:04;6.70;;;3.67;;
75864;SDS011;64510;46.704;38.274;2023-04-16T11:01:35;2.97;;;2.28;;
75864;SDS011;64510;46.704;38.274;2023-04-16T11:07:02;2.78;;;2.58;;
75864;SDS011;64510;46.704;38.274;2023-04-16T11:09:42;4.95;;;2.95;;
75864;SDS011;64510;46.704;38.274;2023-04-16T11:12:11;2.78;;;1.98;;
75864;SDS011;64510;46.704;38.274;2023-04-16T11:14:39;2.90;;;2.15;;
75864;SDS011;64510;46.704;38.274;2023-04-16T11:17:06;4.35;;;2.88;;
75864;SDS011;64510;46.704;38.274;2023-04-16T11:19:34;5.65;;;2.20;;
75864;SDS011;64510;46.704;38.274;2023-04-16T11:22:01;3.20;;;2.40;;
75864;SDS011;64510;46.704;38.274;2023-04-16T11:24:33;6.30;;;2.83;;
75864;SDS011;64510;46.704;38.274;2023-04-16T11:27:00;3.35;;;2.00;;
75864;SDS011;64510;46.704;38.274;2023-04-16T11:29:26;11.43;;;2.15;;
75864;SDS011;64510;46.704;38.274;2023-04-16T11:31:52;5.47;;;2.70;;
75864;SDS011;64510;46.704;38.274;2023-04-16T11:34:19;3.45;;;2.28;;
75864;SDS011;64510;46.704;38.274;2023-04-16T11:36:46;5.78;;;3.13;;
75864;SDS011;64510;46.704;38.274;2023-04-16T11:39:13;2.75;;;2.55;;
75864;SDS011;64510;46.704;38.274;2023-04-16T11:41:43;3.70;;;2.28;;
75864;SDS011;64510;46.704;38.274;2023-04-16T11:44:16;3.08;;;2.47;;
75864;SDS011;64510;46.704;38.274;2023-04-16T11:46:43;2.00;;;1.90;;
75864;SDS011;64510;46.704;38.274;2023-04-16T11:49:09;2.97;;;2.38;;
75864;SDS011;64510;46.704;38.274;2023-04-16T11:51:39;7.30;;;2.88;;
75864;SDS011;64510;46.704;38.274;2023-04-16T11:54:09;2.67;;;2.13;;
75864;SDS011;64510;46.704;38.274;2023-04-16T11:56:46;4.35;;;2.53;;
75864;SDS011;64510;46.704;38.274;2023-04-16T11:59:13;4.07;;;2.45;;
75864;SDS011;64510;46.704;38.274;2023-04-16T12:01:45;3.55;;;2.63;;
75864;SDS011;64510;46.704;38.274;2023-04-16T12:04:13;3.75;;;2.38;;
75864;SDS011;64510;46.704;38.274;2023-04-16T12:07:02;3.22;;;2.33;;
75864;SDS011;64510;46.704;38.274;2023-04-16T12:09:32;3.17;;;2.88;;
75864;SDS011;64510;46.704;38.274;2023-04-16T12:12:02;3.95;;;2.03;;
75864;SDS011;64510;46.704;38.274;2023-04-16T12:14:28;4.28;;;2.58;;
75864;SDS011;64510;46.704;38.274;2023-04-16T12:16:55;2.35;;;1.83;;
75864;SDS011;64510;46.704;38.274;2023-04-16T12:24:57;5.00;;;1.88;;
75864;SDS011;64510;46.704;38.274;2023-04-16T12:27:23;2.20;;;2.00;;
75864;SDS011;64510;46.704;38.274;2023-04-16T12:30:02;3.30;;;2.17;;
75864;SDS011;64510;46.704;38.274;2023-04-16T12:32:29;2.58;;;1.73;;
75864;SDS011;64510;46.704;38.274;2023-04-16T12:34:55;2.25;;;1.92;;
75864;SDS011;64510;46.704;38.274;2023-04-16T12:37:21;3.20;;;2.00;;
75864;SDS011;64510;46.704;38.274;2023-04-16T12:39:47;2.65;;;1.83;;
75864;SDS011;64510;46.704;38.274;2023-04-16T12:42:13;2.60;;;1.90;;
75864;SDS011;64510;46.704;38.274;2023-04-16T12:44:39;2.85;;;1.90;;
75864;SDS011;64510;46.704;38.274;2023-04-16T12:47:05;2.95;;;1.65;;
75864;SDS011;64510;46.704;38.274;2023-04-16T12:49:31;2.83;;;2.20;;
75864;SDS011;64510;46.704;38.274;2023-04-16T12:51:57;2.15;;;1.95;;
75864;SDS011;64510;46.704;38.274;2023-04-16T12:54:22;1.90;;;1.70;;
75864;SDS011;64510;46.704;38.274;2023-04-16T12:56:53;3.80;;;1.90;;
75864;SDS011;64510;46.704;38.274;2023-04-16T12:59:19;2.20;;;1.83;;
75864;SDS011;64510;46.704;38.274;2023-04-16T13:01:45;1.95;;;1.73;;
75864;SDS011;64510;46.704;38.274;2023-04-16T13:04:11;2.83;;;2.10;;
75864;SDS011;64510;46.704;38.274;2023-04-16T13:06:36;1.92;;;1.58;;
75864;SDS011;64510;46.704;38.274;2023-04-16T13:09:03;2.95;;;2.17;;
75864;SDS011;64510;46.704;38.274;2023-04-16T13:11:29;4.03;;;2.17;;
75864;SDS011;64510;46.704;38.274;2023-04-16T13:13:55;2.47;;;2.08;;
75864;SDS011;64510;46.704;38.274;2023-04-16T13:16:21;3.08;;;1.73;;
75864;SDS011;64510;46.704;38.274;2023-04-16T13:18:47;3.28;;;2.22;;
75864;SDS011;64510;46.704;38.274;2023-04-16T13:21:13;2.45;;;2.20;;
75864;SDS011;64510;46.704;38.274;2023-04-16T13:23:39;3.53;;;1.95;;
75864;SDS011;64510;46.704;38.274;2023-04-16T13:26:08;1.60;;;1.50;;
75864;SDS011;64510;46.704;38.274;2023-04-16T13:28:34;1.60;;;1.42;;
75864;SDS011;64510;46.704;38.274;2023-04-16T13:31:00;2.30;;;1.98;;
75864;SDS011;64510;46.704;38.274;2023-04-16T13:33:26;6.47;;;2.63;;
75864;SDS011;64510;46.704;38.274;2023-04-16T13:35:52;2.53;;;2.10;;
75864;SDS011;64510;46.704;38.274;2023-04-16T13:38:18;3.03;;;1.70;;
75864;SDS011;64510;46.704;38.274;2023-04-16T13:40:44;1.92;;;1.75;;
75864;SDS011;64510;46.704;38.274;2023-04-16T13:43:10;2.50;;;1.67;;
75864;SDS011;64510;46.704;38.274;2023-04-16T13:45:36;2.30;;;1.70;;
75864;SDS011;64510;46.704;38.274;2023-04-16T13:48:02;2.47;;;1.77;;
75864;SDS011;64510;46.704;38.274;2023-04-16T13:50:28;4.07;;;1.33;;
75864;SDS011;64510;46.704;38.274;2023-04-16T13:52:54;2.25;;;2.03;;
75864;SDS011;64510;46.704;38.274;2023-04-16T13:55:21;2.92;;;1.90;;
75864;SDS011;64510;46.704;38.274;2023-04-16T13:57:47;2.33;;;1.88;;
75864;SDS011;64510;46.704;38.274;2023-04-16T14:00:14;5.80;;;2.15;;
75864;SDS011;64510;46.704;38.274;2023-04-16T14:02:40;2.75;;;1.98;;
75864;SDS011;64510;46.704;38.274;2023-04-16T14:05:07;1.50;;;1.40;;
75864;SDS011;64510;46.704;38.274;2023-04-16T14:07:33;4.45;;;1.75;;
75864;SDS011;64510;46.704;38.274;2023-04-16T14:09:59;1.95;;;1.58;;
75864;SDS011;64510;46.704;38.274;2023-04-16T14:12:26;2.65;;;1.70;;
75864;SDS011;64510;46.704;38.274;2023-04-16T14:14:52;3.53;;;1.63;;
75864;SDS011;64510;46.704;38.274;2023-04-16T14:17:18;1.77;;;1.67;;
75864;SDS011;64510;46.704;38.274;2023-04-16T14:19:44;3.53;;;2.15;;
75864;SDS011;64510;46.704;38.274;2023-04-16T14:22:13;1.55;;;1.38;;
75864;SDS011;64510;46.704;38.274;2023-04-16T14:24:42;2.63;;;1.48;;
75864;SDS011;64510;46.704;38.274;2023-04-16T14:27:08;2.88;;;1.65;;
75864;SDS011;64510;46.704;38.274;2023-04-16T14:29:34;4.13;;;1.50;;
75864;SDS011;64510;46.704;38.274;2023-04-16T14:32:00;2.00;;;1.10;;
75864;SDS011;64510;46.704;38.274;2023-04-16T14:34:27;3.72;;;1.50;;
75864;SDS011;64510;46.704;38.274;2023-04-16T14:36:53;3.75;;;1.50;;
75864;SDS011;64510;46.704;38.274;2023-04-16T14:39:19;4.43;;;1.70;;
75864;SDS011;64510;46.704;38.274;2023-04-16T14:41:45;2.55;;;1.60;;
75864;SDS011;64510;46.704;38.274;2023-04-16T14:44:11;1.67;;;1.15;;
75864;SDS011;64510;46.704;38.274;2023-04-16T14:46:37;1.55;;;1.45;;
75864;SDS011;64510;46.704;38.274;2023-04-16T14:49:05;2.63;;;1.30;;
75864;SDS011;64510;46.704;38.274;2023-04-16T14:51:31;2.47;;;1.30;;
75864;SDS011;64510;46.704;38.274;2023-04-16T14:53:58;2.13;;;1.25;;